Time;durP1;ratioP1;P1;durP2;ratioP2;P2;SDS_P1;SDS_P2;PMS_P1;PMS_P2;Temp;Humidity;BMP_temperature;BMP_pressure;BME280_temperature;BME280_humidity;BME280_pressure;Samples;Min_cycle;Max_cycle;Signal;HPM_P1;HPM_P2
2022/07/28 00:02:04;;;;;;;1.40;0.60;;;13.90;99.90;;;;;;4937279;29;20055;-74
2022/07/28 00:04:36;;;;;;;3.25;1.00;;;13.90;99.90;;;;;;4920050;29;20026;-75
2022/07/28 00:07:03;;;;;;;2.80;0.93;;;13.90;99.90;;;;;;4937229;29;20106;-75
2022/07/28 00:09:31;;;;;;;2.97;1.10;;;13.90;99.90;;;;;;4937033;29;20106;-74
2022/07/28 00:11:58;;;;;;;3.30;1.15;;;14.00;99.90;;;;;;4937062;29;20389;-73
2022/07/28 00:14:26;;;;;;;3.78;1.13;;;14.20;99.90;;;;;;4919516;29;20028;-74
2022/07/28 00:16:53;;;;;;;2.53;0.70;;;14.20;99.90;;;;;;4919897;29;20035;-74
2022/07/28 00:19:21;;;;;;;4.00;0.70;;;14.30;99.90;;;;;;4936759;29;20032;-73
2022/07/28 00:21:48;;;;;;;2.80;1.15;;;14.40;99.90;;;;;;4936731;29;20023;-74
2022/07/28 00:24:15;;;;;;;3.83;0.82;;;14.60;99.90;;;;;;4936685;29;20040;-74
2022/07/28 00:26:43;;;;;;;3.28;0.90;;;14.60;99.90;;;;;;4936754;29;20157;-73
2022/07/28 00:29:10;;;;;;;3.00;0.90;;;14.80;99.90;;;;;;4936715;29;20392;-74
2022/07/28 00:31:37;;;;;;;3.33;0.80;;;14.80;99.90;;;;;;4936795;29;20032;-73
2022/07/28 00:34:05;;;;;;;2.38;0.70;;;15.00;99.90;;;;;;4936527;29;20028;-73
2022/07/28 00:36:32;;;;;;;2.65;0.80;;;15.00;99.90;;;;;;4936574;29;20055;-73
2022/07/28 00:38:59;;;;;;;10.13;1.55;;;15.10;99.90;;;;;;4936330;29;20031;-72
2022/07/28 00:41:27;;;;;;;2.22;0.60;;;15.20;99.90;;;;;;4936418;29;20384;-75
2022/07/28 00:43:54;;;;;;;2.42;0.90;;;15.20;99.90;;;;;;4936475;29;20031;-75
2022/07/28 00:46:23;;;;;;;2.85;0.85;;;15.40;99.90;;;;;;4936620;29;20063;-75
2022/07/28 00:48:52;;;;;;;3.13;0.82;;;15.60;99.90;;;;;;4936636;29;20078;-74
2022/07/28 00:51:25;;;;;;;2.63;0.60;;;15.50;99.90;;;;;;4936290;29;20075;-74
2022/07/28 00:53:53;;;;;;;2.20;0.40;;;15.50;99.90;;;;;;4936591;29;20060;-75
2022/07/28 00:56:21;;;;;;;1.85;0.30;;;15.60;99.90;;;;;;4936460;29;20034;-74
2022/07/28 00:58:49;;;;;;;6.43;0.75;;;15.70;99.90;;;;;;4919176;29;20035;-74
2022/07/28 01:01:18;;;;;;;2.00;0.50;;;15.80;99.90;;;;;;4936195;29;20504;-75
2022/07/28 01:03:49;;;;;;;4.28;0.68;;;15.80;99.90;;;;;;4936187;29;20364;-75
2022/07/28 01:06:39;;;;;;;2.15;0.60;;;15.90;99.90;;;;;;4919180;29;20070;-74
2022/07/28 01:09:16;;;;;;;2.83;0.40;;;16.10;99.90;;;;;;4935866;29;20412;-73
2022/07/28 01:11:50;;;;;;;2.78;0.70;;;16.10;99.90;;;;;;4918809;29;20035;-74
2022/07/28 01:14:26;;;;;;;1.08;0.25;;;16.20;99.90;;;;;;4936226;29;20084;-73
2022/07/28 01:17:14;;;;;;;0.90;0.40;;;16.30;99.90;;;;;;4935842;29;20054;-75
2022/07/28 01:19:41;;;;;;;2.60;0.40;;;16.40;99.90;;;;;;4936133;29;20020;-74
2022/07/28 01:22:12;;;;;;;2.40;0.32;;;16.40;99.90;;;;;;4918612;29;20028;-74
2022/07/28 01:24:39;;;;;;;;;;;16.50;99.90;;;;;;4936802;29;20042;-75
2022/07/28 01:27:26;;;;;;;0.55;0.22;;;16.60;99.90;;;;;;4936186;29;19907;-76
2022/07/28 01:30:06;;;;;;;4.55;0.70;;;16.60;99.90;;;;;;4935944;29;20028;-74
2022/07/28 01:32:48;;;;;;;0.93;0.45;;;16.70;99.90;;;;;;4918799;29;20032;-76
2022/07/28 01:35:26;;;;;;;1.08;0.43;;;16.80;99.90;;;;;;4935870;29;20038;-74
2022/07/28 01:37:57;;;;;;;1.92;0.40;;;16.90;99.90;;;;;;4935955;29;20020;-76
2022/07/28 01:40:25;;;;;;;;;;;17.00;99.90;;;;;;4936398;29;20107;-75
2022/07/28 01:42:58;;;;;;;1.55;0.50;;;17.00;99.90;;;;;;4935690;29;19914;-75
2022/07/28 01:45:27;;;;;;;2.10;0.40;;;16.90;99.90;;;;;;4935953;29;20027;-75
2022/07/28 01:47:58;;;;;;;1.30;0.30;;;17.10;99.90;;;;;;4918809;29;20036;-75
2022/07/28 01:50:26;;;;;;;1.00;0.47;;;17.20;99.90;;;;;;4918744;29;20093;-75
2022/07/28 01:52:56;;;;;;;2.20;0.45;;;17.10;99.90;;;;;;4918656;29;20156;-75
2022/07/28 01:55:24;;;;;;;2.28;0.40;;;17.20;99.90;;;;;;4935758;29;20028;-75
2022/07/28 01:57:54;;;;;;;1.38;0.60;;;17.10;99.90;;;;;;4918724;29;20028;-75
2022/07/28 02:00:23;;;;;;;1.27;0.20;;;17.20;99.90;;;;;;4935822;29;20016;-76
2022/07/28 02:02:53;;;;;;;2.38;0.68;;;17.20;99.90;;;;;;4918793;29;20030;-75
2022/07/28 02:05:23;;;;;;;0.77;0.20;;;17.30;99.90;;;;;;4939325;29;20051;-75
2022/07/28 02:07:52;;;;;;;0.95;0.40;;;17.40;99.90;;;;;;4939919;29;20020;-77
2022/07/28 02:10:20;;;;;;;0.77;0.25;;;17.40;99.90;;;;;;4922427;29;20552;-74
2022/07/28 02:12:50;;;;;;;1.13;0.30;;;17.40;99.90;;;;;;4922435;29;20028;-75
2022/07/28 02:15:20;;;;;;;1.00;0.35;;;17.50;99.90;;;;;;4939370;29;20032;-75
2022/07/28 02:17:49;;;;;;;1.00;0.40;;;17.40;99.90;;;;;;4939359;29;20039;-75
2022/07/28 02:20:19;;;;;;;1.13;0.30;;;17.50;99.90;;;;;;4922064;29;20031;-75
2022/07/28 02:22:48;;;;;;;1.55;0.28;;;17.60;99.90;;;;;;4939030;29;20527;-75
2022/07/28 02:25:16;;;;;;;1.27;0.28;;;17.60;99.90;;;;;;4922082;29;20050;-75
2022/07/28 02:28:03;;;;;;;0.90;0.30;;;17.50;99.90;;;;;;4939176;29;20111;-75
2022/07/28 02:31:10;;;;;;;1.45;0.40;;;17.80;99.90;;;;;;4922045;29;20488;-74
2022/07/28 02:33:41;;;;;;;0.82;0.43;;;17.90;99.90;;;;;;4939420;29;20078;-75
2022/07/28 02:36:14;;;;;;;1.10;0.40;;;18.00;99.90;;;;;;4939359;29;20031;-75
2022/07/28 02:38:48;;;;;;;2.00;0.70;;;18.00;99.90;;;;;;4922089;29;20046;-75
2022/07/28 02:41:27;;;;;;;2.55;0.40;;;18.20;99.90;;;;;;4938785;29;20548;-75
2022/07/28 02:44:03;;;;;;;1.83;0.38;;;18.30;99.90;;;;;;4938935;29;20023;-76
2022/07/28 02:46:38;;;;;;;0.90;0.28;;;18.30;99.70;;;;;;4922171;29;20032;-76
2022/07/28 02:49:43;;;;;;;1.98;0.50;;;18.30;99.90;;;;;;4939420;29;20422;-76
2022/07/28 02:52:12;;;;;;;3.75;0.68;;;18.40;99.50;;;;;;4890539;29;20039;-76
2022/07/28 02:54:41;;;;;;;3.10;0.50;;;18.50;99.60;;;;;;4938770;29;20028;-74
2022/07/28 02:57:09;;;;;;;2.58;0.45;;;18.40;99.80;;;;;;4938502;29;20063;-76
2022/07/28 02:59:37;;;;;;;1.27;0.47;;;18.30;98.60;;;;;;4921623;29;20024;-75
2022/07/28 03:02:06;;;;;;;3.47;0.70;;;18.30;99.30;;;;;;4921495;29;20392;-75
2022/07/28 03:07:19;;;;;;;1.17;0.50;;;18.30;99.10;;;;;;4938844;29;20507;-76
2022/07/28 03:09:48;;;;;;;1.92;0.40;;;18.50;99.70;;;;;;4921228;29;20031;-76
2022/07/28 03:12:15;;;;;;;1.42;0.45;;;18.40;99.60;;;;;;4921168;29;20027;-76
2022/07/28 03:14:43;;;;;;;1.98;0.30;;;18.60;99.80;;;;;;4937665;29;20023;-76
2022/07/28 03:17:10;;;;;;;0.88;0.30;;;18.50;98.80;;;;;;4920704;29;20028;-76
2022/07/28 03:19:38;;;;;;;1.80;0.30;;;18.60;99.20;;;;;;4938403;29;20126;-76
2022/07/28 03:22:06;;;;;;;0.70;0.20;;;18.80;99.10;;;;;;4938212;29;20152;-75
2022/07/28 03:24:38;;;;;;;1.00;0.30;;;18.90;99.30;;;;;;4938028;29;20035;-76
2022/07/28 03:27:30;;;;;;;1.98;0.32;;;18.90;99.80;;;;;;4920767;29;20031;-76
2022/07/28 03:30:14;;;;;;;1.33;0.35;;;18.90;98.70;;;;;;4921142;29;20129;-75
2022/07/28 03:32:51;;;;;;;1.30;0.40;;;18.90;99.20;;;;;;4938057;29;20023;-76
2022/07/28 03:35:19;;;;;;;1.23;0.38;;;19.00;98.70;;;;;;4937902;29;20035;-76
2022/07/28 03:37:58;;;;;;;1.20;0.30;;;18.90;98.90;;;;;;4920647;29;20035;-76
2022/07/28 03:40:29;;;;;;;1.15;0.30;;;19.10;99.00;;;;;;4937892;29;20028;-76
2022/07/28 03:42:57;;;;;;;0.82;0.35;;;19.20;99.10;;;;;;4937967;29;20027;-76
2022/07/28 03:45:25;;;;;;;1.48;0.50;;;19.10;99.00;;;;;;4920775;29;20031;-76
2022/07/28 03:47:55;;;;;;;2.67;0.30;;;19.10;98.70;;;;;;4920564;29;20440;-76
2022/07/28 03:50:27;;;;;;;1.50;0.25;;;18.90;98.60;;;;;;4937700;29;20043;-76
2022/07/28 03:52:56;;;;;;;2.42;0.38;;;18.90;98.70;;;;;;4920706;29;20030;-75
2022/07/28 03:55:25;;;;;;;3.05;0.73;;;18.90;99.40;;;;;;4920510;29;20035;-76
2022/07/28 03:57:52;;;;;;;1.67;0.40;;;18.90;98.20;;;;;;4937759;29;20098;-76
2022/07/28 04:00:20;;;;;;;1.90;0.25;;;18.90;97.70;;;;;;4920669;29;20024;-76
2022/07/28 04:02:48;;;;;;;2.83;0.57;;;18.90;98.10;;;;;;4937875;29;20028;-75
2022/07/28 04:05:17;;;;;;;2.25;0.30;;;18.80;98.40;;;;;;4937384;29;20020;-77
2022/07/28 04:07:48;;;;;;;0.75;0.30;;;18.90;98.10;;;;;;4937528;29;20123;-76
2022/07/28 04:10:17;;;;;;;1.60;0.40;;;19.00;97.30;;;;;;4904534;29;20378;-76
2022/07/28 04:12:55;;;;;;;0.73;0.27;;;19.00;97.80;;;;;;4920272;29;20063;-76
2022/07/28 04:15:24;;;;;;;0.50;0.30;;;19.00;97.50;;;;;;4937516;29;20051;-76
2022/07/28 04:17:53;;;;;;;1.08;0.22;;;19.00;97.20;;;;;;4937313;29;20023;-76
2022/07/28 04:20:22;;;;;;;1.42;0.20;;;19.10;97.30;;;;;;4920170;29;20122;-76
2022/07/28 04:22:51;;;;;;;1.95;0.40;;;19.00;96.90;;;;;;4919743;29;20056;-76
2022/07/28 04:25:20;;;;;;;1.65;0.40;;;19.20;97.60;;;;;;4937118;29;20024;-76
2022/07/28 04:27:47;;;;;;;0.75;0.20;;;19.20;96.80;;;;;;4919674;29;20424;-76
2022/07/28 04:30:23;;;;;;;1.42;0.30;;;19.20;96.60;;;;;;4937020;29;20023;-76
2022/07/28 04:32:55;;;;;;;1.50;0.40;;;19.20;98.40;;;;;;4937379;29;20030;-76
2022/07/28 04:35:23;;;;;;;0.63;0.20;;;19.20;98.70;;;;;;4919768;29;20123;-76
2022/07/28 04:37:53;;;;;;;0.57;0.20;;;19.10;97.60;;;;;;4937006;29;20110;-76
2022/07/28 04:40:21;;;;;;;0.22;0.22;;;19.00;97.10;;;;;;4937258;29;20071;-76
2022/07/28 04:42:49;;;;;;;1.70;0.40;;;19.10;97.60;;;;;;4920109;29;20036;-75
2022/07/28 04:45:17;;;;;;;0.82;0.38;;;18.90;97.10;;;;;;4919839;29;20503;-75
2022/07/28 04:47:44;;;;;;;1.40;0.63;;;18.80;96.90;;;;;;4936512;29;20032;-75
2022/07/28 04:50:17;;;;;;;2.00;0.47;;;18.90;98.60;;;;;;4919468;29;20432;-76
2022/07/28 04:52:48;;;;;;;0.82;0.43;;;18.90;97.40;;;;;;4919693;29;20082;-76
2022/07/28 04:55:15;;;;;;;2.60;0.60;;;19.00;98.30;;;;;;4919303;29;20400;-75
2022/07/28 04:57:43;;;;;;;1.33;0.32;;;18.90;98.00;;;;;;4936598;29;20035;-76
2022/07/28 05:00:12;;;;;;;1.15;0.40;;;18.80;97.70;;;;;;4936565;29;20027;-75
2022/07/28 05:02:44;;;;;;;1.65;0.30;;;18.80;98.00;;;;;;4919436;29;20106;-76
2022/07/28 05:05:12;;;;;;;1.55;0.60;;;18.80;98.40;;;;;;4936481;29;20106;-76
2022/07/28 05:07:40;;;;;;;0.40;0.22;;;18.80;97.50;;;;;;4936505;29;20107;-76
2022/07/28 05:10:10;;;;;;;1.33;0.50;;;18.70;96.40;;;;;;4919467;29;20035;-76
2022/07/28 05:12:38;;;;;;;0.50;0.10;;;18.80;97.10;;;;;;4936480;29;20024;-76
2022/07/28 05:15:06;;;;;;;1.05;0.40;;;18.90;96.00;;;;;;4936444;29;20024;-76
2022/07/28 05:17:35;;;;;;;2.60;0.30;;;18.90;96.70;;;;;;4936832;29;20130;-76
2022/07/28 05:20:04;;;;;;;0.68;0.55;;;18.90;96.40;;;;;;4936379;29;20083;-76
2022/07/28 05:22:56;;;;;;;1.15;0.20;;;18.90;96.90;;;;;;4935946;29;20044;-76
2022/07/28 05:25:24;;;;;;;1.67;0.30;;;18.90;97.30;;;;;;4936655;29;20027;-76
2022/07/28 05:27:53;;;;;;;1.80;0.40;;;18.90;96.30;;;;;;4936006;29;20035;-76
2022/07/28 05:30:20;;;;;;;0.70;0.30;;;18.90;96.30;;;;;;4936427;29;20024;-76
2022/07/28 05:32:49;;;;;;;0.85;0.30;;;18.90;96.50;;;;;;4936262;29;20396;-76
2022/07/28 05:35:17;;;;;;;2.97;0.50;;;18.80;96.40;;;;;;4936349;29;20107;-76
2022/07/28 05:37:44;;;;;;;1.70;0.35;;;18.90;96.20;;;;;;4935966;29;20038;-76
2022/07/28 05:40:14;;;;;;;1.02;0.30;;;19.00;97.90;;;;;;4940161;29;20019;-77
2022/07/28 05:42:46;;;;;;;1.42;0.38;;;18.80;96.40;;;;;;4940190;29;20087;-76
2022/07/28 05:45:14;;;;;;;0.93;0.20;;;18.80;96.60;;;;;;4940239;29;20027;-77
2022/07/28 05:47:45;;;;;;;2.35;0.40;;;18.70;97.10;;;;;;4922518;29;20420;-77
2022/07/28 05:50:14;;;;;;;1.10;0.28;;;18.70;96.80;;;;;;4922584;29;20027;-76
2022/07/28 05:52:41;;;;;;;1.80;0.40;;;18.60;97.30;;;;;;4940041;29;20075;-77
2022/07/28 05:55:10;;;;;;;1.33;0.60;;;18.50;97.80;;;;;;4940101;29;20032;-78
2022/07/28 05:57:37;;;;;;;1.95;0.52;;;18.40;97.90;;;;;;4939962;29;20031;-77
2022/07/28 06:00:08;;;;;;;0.90;0.20;;;18.40;97.50;;;;;;4940042;29;20024;-77
2022/07/28 06:02:36;;;;;;;2.15;0.30;;;18.20;97.70;;;;;;4939836;29;20401;-77
2022/07/28 06:05:05;;;;;;;0.52;0.17;;;18.10;98.50;;;;;;4939841;29;20107;-77
2022/07/28 06:07:33;;;;;;;2.35;0.30;;;18.00;98.60;;;;;;4923051;29;20051;-77
2022/07/28 06:10:00;;;;;;;0.65;0.30;;;18.00;98.80;;;;;;4922514;29;20511;-77
2022/07/28 06:12:27;;;;;;;0.90;0.40;;;17.90;98.70;;;;;;4922347;29;20392;-77
2022/07/28 06:14:55;;;;;;;1.95;0.25;;;18.00;98.90;;;;;;4939473;29;20067;-77
2022/07/28 06:17:22;;;;;;;0.95;0.38;;;18.00;98.50;;;;;;4939825;29;20079;-77
2022/07/28 06:19:49;;;;;;;3.10;0.50;;;18.00;99.10;;;;;;4939778;29;20020;-76
2022/07/28 06:22:17;;;;;;;1.75;0.20;;;18.10;99.10;;;;;;4939254;29;20027;-76
2022/07/28 06:24:44;;;;;;;2.03;0.40;;;18.00;99.00;;;;;;4939423;29;20384;-76
2022/07/28 06:27:11;;;;;;;1.38;0.32;;;18.10;99.40;;;;;;4922219;29;20421;-76
2022/07/28 06:29:39;;;;;;;1.77;0.60;;;18.10;99.60;;;;;;4922633;29;20032;-76
2022/07/28 06:32:06;;;;;;;1.42;0.40;;;18.00;99.40;;;;;;4939421;29;20028;-76
2022/07/28 06:34:33;;;;;;;2.33;0.55;;;17.90;99.90;;;;;;4921657;29;20032;-76
2022/07/28 06:37:01;;;;;;;1.35;0.38;;;17.90;99.90;;;;;;4938784;29;20108;-75
2022/07/28 06:39:28;;;;;;;1.10;0.55;;;17.90;99.70;;;;;;4938921;29;20028;-76
2022/07/28 06:41:55;;;;;;;1.77;0.70;;;17.70;99.90;;;;;;4939007;29;20433;-75
2022/07/28 06:44:23;;;;;;;2.05;0.40;;;17.60;99.90;;;;;;4938698;29;20122;-76
2022/07/28 06:46:50;;;;;;;0.88;0.50;;;17.50;99.90;;;;;;4922034;29;20122;-75
2022/07/28 06:49:17;;;;;;;1.52;0.50;;;17.30;99.90;;;;;;4938639;29;20107;-75
2022/07/28 06:51:45;;;;;;;1.33;0.63;;;17.20;99.90;;;;;;4939282;29;20107;-76
2022/07/28 06:54:12;;;;;;;1.45;0.75;;;17.10;99.90;;;;;;4939357;29;20020;-76
2022/07/28 06:56:39;;;;;;;2.40;0.80;;;17.10;99.90;;;;;;4938844;29;20075;-75
2022/07/28 06:59:07;;;;;;;3.03;0.80;;;17.00;99.90;;;;;;4921534;29;20056;-75
2022/07/28 07:01:34;;;;;;;1.15;0.60;;;17.00;99.90;;;;;;4938667;29;20036;-69
2022/07/28 07:04:01;;;;;;;1.38;0.50;;;16.90;99.70;;;;;;4938116;29;20125;-69
2022/07/28 07:06:28;;;;;;;1.20;0.70;;;16.90;99.90;;;;;;4938007;29;20020;-68
2022/07/28 07:08:56;;;;;;;1.25;0.60;;;16.80;99.90;;;;;;4938262;29;20020;-68
2022/07/28 07:11:23;;;;;;;2.03;0.63;;;16.80;99.90;;;;;;4920657;29;20036;-68
2022/07/28 07:13:51;;;;;;;3.17;0.60;;;16.70;99.90;;;;;;4937874;29;20027;-68
2022/07/28 07:16:19;;;;;;;1.08;0.40;;;16.70;99.90;;;;;;4920697;29;20393;-68
2022/07/28 07:18:49;;;;;;;0.93;0.60;;;16.70;99.90;;;;;;4920656;29;20028;-68
2022/07/28 07:21:16;;;;;;;1.42;0.68;;;16.70;99.90;;;;;;4937776;29;20485;-69
2022/07/28 07:23:44;;;;;;;2.10;0.55;;;16.60;99.90;;;;;;4937484;29;20054;-68
2022/07/28 07:26:11;;;;;;;2.53;0.77;;;16.60;99.90;;;;;;4937592;29;20031;-68
2022/07/28 07:28:40;;;;;;;3.35;0.93;;;16.60;99.90;;;;;;4937654;29;20054;-69
2022/07/28 07:31:07;;;;;;;2.08;0.70;;;16.50;99.90;;;;;;4937643;29;20054;-68
2022/07/28 07:33:35;;;;;;;2.10;0.88;;;16.40;99.90;;;;;;4937874;29;20059;-68
2022/07/28 07:36:02;;;;;;;2.67;1.20;;;16.40;99.90;;;;;;4937578;29;20031;-68
2022/07/28 07:38:29;;;;;;;1.98;0.90;;;16.40;99.90;;;;;;4937259;29;20068;-68
2022/07/28 07:40:57;;;;;;;2.53;1.30;;;16.30;99.90;;;;;;4937382;29;20024;-68
2022/07/28 07:43:25;;;;;;;2.70;1.45;;;16.30;99.90;;;;;;4920209;29;20079;-68
2022/07/28 07:45:53;;;;;;;2.17;0.90;;;16.30;99.90;;;;;;4937374;29;20020;-69
2022/07/28 07:48:20;;;;;;;1.77;0.88;;;16.30;99.90;;;;;;4937410;29;20412;-68
2022/07/28 07:50:47;;;;;;;1.27;0.77;;;16.30;99.90;;;;;;4920233;29;20023;-68
2022/07/28 07:53:15;;;;;;;1.65;0.80;;;16.20;99.90;;;;;;4937199;29;20518;-68
2022/07/28 07:55:42;;;;;;;2.85;0.85;;;16.20;99.90;;;;;;4919885;29;20066;-68
2022/07/28 07:58:10;;;;;;;1.67;0.90;;;16.20;99.90;;;;;;4937219;29;20087;-69
2022/07/28 08:00:37;;;;;;;3.22;1.13;;;16.20;99.90;;;;;;4936972;29;20027;-68
2022/07/28 08:03:05;;;;;;;2.78;0.85;;;16.10;99.90;;;;;;4919484;29;20062;-70
2022/07/28 08:05:33;;;;;;;2.15;1.55;;;16.10;99.90;;;;;;4919974;29;20031;-68
2022/07/28 08:08:00;;;;;;;3.72;1.30;;;16.10;99.90;;;;;;4937080;29;20507;-69
2022/07/28 08:10:27;;;;;;;2.35;1.27;;;16.00;99.90;;;;;;4936951;29;20497;-68
2022/07/28 08:12:55;;;;;;;3.20;1.30;;;16.00;99.90;;;;;;4919730;29;20024;-68
2022/07/28 08:15:22;;;;;;;2.47;1.10;;;16.00;99.90;;;;;;4936938;29;20031;-67
2022/07/28 08:17:49;;;;;;;3.53;2.47;;;16.00;99.90;;;;;;4919604;29;20034;-68
2022/07/28 08:20:17;;;;;;;3.38;1.02;;;16.00;99.90;;;;;;4936737;29;20476;-68
2022/07/28 08:22:54;;;;;;;1.90;1.02;;;15.80;99.90;;;;;;4936591;29;20428;-69
2022/07/28 08:25:23;;;;;;;1.48;0.88;;;15.70;99.90;;;;;;4919528;29;20114;-68
2022/07/28 08:27:50;;;;;;;1.58;0.88;;;15.70;99.90;;;;;;4936766;29;20035;-69
2022/07/28 08:30:18;;;;;;;2.40;0.80;;;15.60;99.90;;;;;;4936609;29;20039;-68
2022/07/28 08:32:46;;;;;;;3.38;1.02;;;15.60;99.90;;;;;;4936613;29;20024;-68
2022/07/28 08:35:14;;;;;;;3.45;1.20;;;15.50;99.90;;;;;;4936460;29;20114;-67
2022/07/28 08:37:41;;;;;;;1.92;0.82;;;15.50;99.90;;;;;;4919150;29;20070;-67
2022/07/28 08:40:16;;;;;;;1.92;0.80;;;15.40;99.90;;;;;;4936466;29;20019;-69
2022/07/28 08:43:01;;;;;;;2.30;0.98;;;15.40;99.90;;;;;;4936532;29;20023;-69
2022/07/28 08:45:30;;;;;;;1.27;0.50;;;15.40;99.90;;;;;;4919143;29;20035;-68
2022/07/28 08:47:58;;;;;;;2.30;0.70;;;15.30;99.90;;;;;;4936206;29;20053;-67
2022/07/28 08:50:27;;;;;;;1.30;0.70;;;15.20;99.90;;;;;;4936288;29;20051;-69
2022/07/28 08:52:55;;;;;;;2.28;0.70;;;15.10;99.90;;;;;;4936446;29;20036;-69
2022/07/28 08:55:27;;;;;;;2.17;0.47;;;15.00;99.90;;;;;;4919214;29;20035;-70
2022/07/28 08:57:56;;;;;;;1.95;0.60;;;15.00;99.90;;;;;;4919258;29;20539;-68
2022/07/28 09:00:24;;;;;;;3.17;0.93;;;15.00;99.90;;;;;;4936672;29;20385;-69
2022/07/28 09:02:51;;;;;;;1.50;0.65;;;14.90;99.90;;;;;;4936058;29;20051;-68
2022/07/28 09:05:23;;;;;;;2.20;0.80;;;14.90;99.90;;;;;;4936601;29;20392;-68
2022/07/28 09:07:53;;;;;;;1.83;0.60;;;14.90;99.90;;;;;;4936425;29;20024;-69
2022/07/28 09:10:21;;;;;;;2.90;0.70;;;14.80;99.90;;;;;;4919132;29;20131;-68
2022/07/28 09:12:48;;;;;;;1.23;0.60;;;14.70;99.90;;;;;;4936340;29;20038;-69
2022/07/28 09:15:15;;;;;;;2.25;0.75;;;14.80;99.90;;;;;;4919036;29;20489;-69
2022/07/28 09:17:43;;;;;;;1.33;0.75;;;14.70;99.90;;;;;;4919088;29;20480;-70
2022/07/28 09:20:12;;;;;;;1.38;0.70;;;14.70;99.90;;;;;;4918779;29;20024;-70
2022/07/28 09:23:02;;;;;;;1.55;0.47;;;14.70;99.90;;;;;;4935945;29;20124;-69
2022/07/28 09:25:30;;;;;;;2.40;0.70;;;14.70;99.90;;;;;;4919258;29;20024;-70
2022/07/28 09:28:18;;;;;;;3.25;0.70;;;14.70;99.90;;;;;;4936029;29;20028;-69
2022/07/28 09:30:49;;;;;;;2.17;0.77;;;14.70;99.90;;;;;;4936033;29;20023;-71
2022/07/28 09:33:23;;;;;;;2.00;0.55;;;14.70;99.90;;;;;;4936221;29;20055;-70
2022/07/28 09:35:55;;;;;;;2.42;0.60;;;14.60;99.90;;;;;;4918756;29;20031;-71
2022/07/28 09:38:24;;;;;;;1.50;0.47;;;14.60;99.90;;;;;;4918758;29;20103;-70
2022/07/28 09:41:06;;;;;;;1.20;0.70;;;14.60;99.90;;;;;;4935823;29;20437;-71
2022/07/28 09:43:42;;;;;;;3.03;0.70;;;14.50;99.90;;;;;;4935829;29;20022;-69
2022/07/28 09:46:14;;;;;;;1.75;0.93;;;14.40;99.90;;;;;;4935790;29;20069;-70
2022/07/28 09:48:55;;;;;;;3.08;1.00;;;14.50;99.90;;;;;;4918751;29;20024;-71
2022/07/28 09:51:34;;;;;;;2.13;0.70;;;14.40;99.90;;;;;;4918723;29;20429;-70
2022/07/28 09:54:19;;;;;;;1.02;0.68;;;14.20;99.90;;;;;;4934169;29;20068;-71
2022/07/28 09:56:46;;;;;;;1.50;0.80;;;14.10;99.90;;;;;;4935756;29;20490;-70
2022/07/28 09:59:15;;;;;;;2.00;0.80;;;14.10;99.90;;;;;;4936366;29;20103;-71
2022/07/28 10:01:57;;;;;;;1.85;0.95;;;14.00;99.90;;;;;;4918499;29;20383;-70
2022/07/28 10:04:38;;;;;;;2.50;1.02;;;14.10;99.90;;;;;;4918616;29;20115;-70
2022/07/28 10:07:15;;;;;;;1.50;0.60;;;14.00;99.90;;;;;;4918669;29;20028;-70
2022/07/28 10:09:43;;;;;;;2.17;0.50;;;14.00;99.90;;;;;;4936329;29;20039;-70
2022/07/28 10:12:19;;;;;;;1.00;0.50;;;14.00;99.90;;;;;;4935597;29;20079;-70
2022/07/28 10:14:49;;;;;;;1.30;0.50;;;13.90;99.90;;;;;;4918549;29;20024;-70
2022/07/28 10:17:33;;;;;;;1.75;0.73;;;13.80;99.90;;;;;;4935525;29;20031;-70
2022/07/28 10:20:06;;;;;;;1.65;0.70;;;13.70;99.90;;;;;;4935482;29;20024;-70
2022/07/28 10:22:36;;;;;;;2.55;0.90;;;13.60;99.90;;;;;;4935399;29;20036;-71
2022/07/28 10:25:09;;;;;;;1.77;0.65;;;13.50;99.90;;;;;;4919805;29;20038;-69
2022/07/28 10:27:39;;;;;;;1.38;0.60;;;13.50;99.90;;;;;;4922170;29;20043;-70
2022/07/28 10:30:07;;;;;;;2.33;0.60;;;13.50;99.90;;;;;;4939702;29;20046;-69
2022/07/28 10:32:53;;;;;;;0.80;0.50;;;13.60;99.90;;;;;;4939635;29;20116;-69
2022/07/28 10:35:21;;;;;;;2.08;0.70;;;13.60;99.90;;;;;;4922058;29;20099;-70
2022/07/28 10:38:04;;;;;;;1.15;0.50;;;13.70;99.90;;;;;;4921808;29;20031;-69
2022/07/28 10:40:44;;;;;;;1.83;0.50;;;13.80;99.90;;;;;;4921742;29;20441;-69
2022/07/28 10:43:12;;;;;;;;;;;13.90;99.90;;;;;;4939586;29;20023;-69
2022/07/28 10:45:40;;;;;;;3.42;1.58;;;13.90;99.90;;;;;;4921625;29;19950;-70
2022/07/28 10:48:08;;;;;;;1.13;0.65;;;13.80;99.90;;;;;;4938526;29;20039;-69
2022/07/28 10:50:36;;;;;;;1.13;0.63;;;13.70;99.90;;;;;;4938656;29;20039;-69
2022/07/28 10:53:06;;;;;;;1.38;0.60;;;13.70;99.90;;;;;;4938638;29;20027;-69
2022/07/28 10:55:33;;;;;;;2.60;0.60;;;13.70;99.90;;;;;;4938615;29;20074;-69
2022/07/28 10:58:43;;;;;;;3.20;1.42;;;13.70;99.90;;;;;;4938444;29;20420;-70
2022/07/28 11:01:10;;;;;;;5.93;2.33;;;13.70;99.90;;;;;;4938779;29;20019;-69
2022/07/28 11:03:42;;;;;;;4.50;2.03;;;13.50;99.90;;;;;;4921205;29;20051;-69
2022/07/28 11:06:29;;;;;;;3.63;2.30;;;13.50;99.90;;;;;;4938360;29;20023;-71
2022/07/28 11:09:20;;;;;;;2.80;1.63;;;13.40;99.90;;;;;;4938199;29;20095;-71
2022/07/28 11:11:53;;;;;;;3.42;1.75;;;13.40;99.90;;;;;;4938302;29;20107;-69
2022/07/28 11:14:28;;;;;;;2.20;1.60;;;13.40;99.90;;;;;;4938209;29;20024;-69
2022/07/28 11:17:04;;;;;;;2.33;1.52;;;13.40;99.90;;;;;;4920911;29;20059;-69
2022/07/28 11:19:31;;;;;;;2.00;1.23;;;13.40;99.90;;;;;;4920981;29;20032;-70
2022/07/28 11:22:26;;;;;;;0.85;0.40;;;13.40;99.90;;;;;;4938126;29;20043;-70
2022/07/28 11:25:00;;;;;;;1.63;0.50;;;13.50;99.90;;;;;;4932745;29;20127;-70
2022/07/28 11:27:45;;;;;;;0.80;0.40;;;13.40;99.90;;;;;;4920813;29;20484;-70
2022/07/28 11:30:34;;;;;;;1.83;0.80;;;13.40;99.90;;;;;;4920715;29;20047;-70
2022/07/28 11:33:03;;;;;;;1.75;0.77;;;13.40;99.90;;;;;;4938297;29;20032;-70
2022/07/28 11:35:51;;;;;;;1.50;0.52;;;13.30;99.90;;;;;;4920540;29;20031;-70
2022/07/28 11:38:21;;;;;;;1.63;0.52;;;13.30;99.90;;;;;;4937797;29;20028;-70
2022/07/28 11:40:51;;;;;;;2.72;0.60;;;13.40;99.90;;;;;;4905445;29;20027;-69
2022/07/28 11:43:28;;;;;;;2.33;0.60;;;13.50;99.90;;;;;;4937612;29;20028;-70
2022/07/28 11:46:04;;;;;;;1.75;0.73;;;13.50;99.90;;;;;;4937860;29;20098;-70
2022/07/28 11:48:32;;;;;;;1.48;0.60;;;13.50;99.90;;;;;;4920293;29;20028;-71
2022/07/28 11:51:06;;;;;;;1.63;0.65;;;13.40;99.90;;;;;;4920311;29;20183;-70
2022/07/28 11:53:43;;;;;;;1.95;0.57;;;13.40;99.90;;;;;;4937561;29;20159;-70
2022/07/28 11:56:23;;;;;;;1.60;0.73;;;13.40;99.90;;;;;;4920394;29;20059;-70
2022/07/28 11:58:58;;;;;;;2.72;0.77;;;13.40;99.90;;;;;;4920107;29;20028;-69
2022/07/28 12:01:25;;;;;;;1.60;0.60;;;13.40;99.90;;;;;;4920430;29;20042;-70
2022/07/28 12:04:00;;;;;;;1.58;0.50;;;13.40;99.90;;;;;;4920682;29;20483;-70
2022/07/28 12:06:41;;;;;;;1.40;0.50;;;13.40;99.90;;;;;;4937418;29;20016;-70
2022/07/28 12:09:12;;;;;;;1.80;0.43;;;13.50;99.90;;;;;;4920128;29;20028;-70
2022/07/28 12:11:41;;;;;;;0.90;0.57;;;13.50;99.90;;;;;;4920062;29;20485;-70
2022/07/28 12:14:11;;;;;;;2.60;0.57;;;13.50;99.90;;;;;;4920136;29;20032;-70
2022/07/28 12:16:42;;;;;;;1.85;0.88;;;13.50;99.90;;;;;;4919864;29;20032;-70
2022/07/28 12:19:10;;;;;;;1.58;0.80;;;13.40;99.90;;;;;;4937041;29;20075;-70
2022/07/28 12:21:43;;;;;;;1.38;0.70;;;13.40;99.90;;;;;;4936968;29;20079;-70
2022/07/28 12:24:13;;;;;;;1.50;0.90;;;13.30;99.90;;;;;;4919594;29;20095;-71
2022/07/28 12:26:42;;;;;;;1.65;0.77;;;13.30;99.90;;;;;;4936916;29;20020;-71
2022/07/28 12:29:14;;;;;;;1.77;0.60;;;13.20;99.90;;;;;;4936824;29;20035;-70
2022/07/28 12:31:54;;;;;;;1.50;0.47;;;13.20;99.90;;;;;;4919778;29;20026;-71
2022/07/28 12:34:22;;;;;;;1.88;0.70;;;13.20;99.90;;;;;;4937024;29;20028;-71
2022/07/28 12:36:50;;;;;;;1.90;0.60;;;13.20;99.90;;;;;;4936842;29;20496;-72
2022/07/28 12:39:21;;;;;;;1.35;0.60;;;13.10;99.90;;;;;;4936181;29;20111;-72
2022/07/28 12:41:58;;;;;;;2.35;0.70;;;13.10;99.90;;;;;;4919742;29;20432;-72
2022/07/28 12:44:39;;;;;;;1.65;0.70;;;13.10;99.90;;;;;;4905112;29;20031;-71
2022/07/28 12:47:09;;;;;;;2.63;0.65;;;13.10;99.90;;;;;;4919437;29;20058;-72
2022/07/28 12:49:38;;;;;;;2.88;0.50;;;13.10;99.90;;;;;;4936666;29;20031;-72
2022/07/28 12:52:22;;;;;;;1.60;1.00;;;13.10;99.90;;;;;;4936537;29;20397;-71
2022/07/28 12:54:51;;;;;;;2.25;0.75;;;13.00;99.90;;;;;;4919368;29;20034;-72
2022/07/28 12:57:41;;;;;;;1.08;0.60;;;13.00;99.90;;;;;;4919227;29;20071;-71
2022/07/28 13:00:10;;;;;;;1.30;0.60;;;13.00;99.90;;;;;;4936417;29;20047;-70
2022/07/28 13:02:37;;;;;;;1.55;0.63;;;13.00;99.90;;;;;;4936399;29;20024;-69
2022/07/28 13:05:06;;;;;;;1.88;0.65;;;13.00;99.90;;;;;;4936124;29;20079;-70
2022/07/28 13:07:34;;;;;;;1.40;0.90;;;13.00;99.90;;;;;;4936011;29;20039;-69
2022/07/28 13:10:07;;;;;;;2.75;0.75;;;13.00;99.90;;;;;;4936171;29;20027;-71
2022/07/28 13:12:35;;;;;;;1.08;0.60;;;13.00;99.90;;;;;;4936744;29;20027;-71